WMKK/KUL METAR and TAF weather

Enter ICAO airport designator
Station Type Date Time Source
WMKK METAR 2019/12/08 19:00 UTC NOAA

WMKK 081900Z 29003KT 250V310 9999 FEW017CB 26/23 Q1011 NOSIG


Station Type Date Time Source
WMKK Decoded METAR 2019/12/08 19:00 UTC NOAA

Sepang/KL International Airport, Malaysia (WMKK) 02-44N 101-42E 22M
Dec 08, 2019 - 02:00 PM EST / 2019.12.08 1900 UTC
Wind: from the WNW (290 degrees) at 3 MPH (3 KT) (direction variable):0
Visibility: greater than 7 mile(s):0
Sky conditions: mostly clear
Weather: Cumulonimbus clouds observed
Temperature: 78 F (26 C)
Dew Point: 73 F (23 C)
Relative Humidity: 83%
Pressure (altimeter): 29.85 in. Hg (1011 hPa)
ob: WMKK 081900Z 29003KT 250V310 9999 FEW017CB 26/23 Q1011 NOSIG
cycle: 19

Station Type Date Time Source
WMKK TAF 2019/12/08 18:19 UTC NOAA

TAF WMKK 081700Z 0818/1000 05006KT 9999 FEW017CB PROB30
TEMPO 0907/0911 4000 TSRA FEW010 FEW016CB SCT018

Example: see airport list